*** Het weer in Zoersel & omstreken... Achter de schermen zijn we druk in de weer om deze website een grondige make-over te geven! Nog even geduld dus! ***

Weerstation Zoersel Live Webcam Weerstation Zoersel Live Webcam


sateliet wolkenradar  


Doneren

CBI


onweer radar meer informatie blitzortung!


regen radar  rain snow radar


Enkele sfeerfotootjes...  

Het weer levert geen direct gevaar op.    Er zijn geen waarschuwingen afgegeven.

metar rapporten vliegvelden

   
EBAW - Antwerp
gewijzigd: 25-05-2019 02:20
helder  
helder  
   wind: varieert 1,9 km/h
wind: varieert 1,9 km/h
temperatuur: 12°C
dauwpunt: 7°C
vochtigheid: 72%
barometer: 1017 hPa
zicht: meer dan 10 km
bewolking: helder
EBAW 250020Z AUTO VRB01KT CAVOK 12/07 Q1017
EBLG - Li├Ęge
gewijzigd: 25-05-2019 02:20
helder  
helder  
   wind: wnw 5,6 km/h
wind: wnw 5,6 km/h
temperatuur: 11°C
dauwpunt: 6°C
vochtigheid: 72%
barometer: 1017 hPa
zicht: meer dan 10 km
bewolking: helder
EBLG 250020Z 30003KT 220V330 CAVOK 11/06 Q1017 NOSIG
EBCV - Mons/Bergen
gewijzigd: 25-05-2019 02:25
helder  
helder  
   wind: varieert 1,9 km/h
wind: varieert 1,9 km/h
temperatuur: 10°C
dauwpunt: 7°C
vochtigheid: 82%
barometer: 1017 hPa
bewolking: helder
zicht: meer dan 10 km
bewolking: helder
EBCV 250025Z AUTO VRB01KT 9999 NCD 10/07 Q1017 BLU
EHBK - Maastricht
gewijzigd: 25-05-2019 02:25
helder  
helder  
   wind: westen 5,6 km/h
wind: westen 5,6 km/h
temperatuur: 9°C
voelt als: 8°C
dauwpunt: 5°C
vochtigheid: 76%
barometer: 1016 hPa
bewolking: helder
zicht: meer dan 10 km
bewolking: helder
EHBK 250025Z AUTO 28003KT 250V310 9999 NCD 09/05 Q1016
ELLX - Luxemburg
gewijzigd: 25-05-2019 02:20
licht bewolkt  
licht bewolkt  
   wind: noorden 14,8 km/h
wind: noorden 14,8 km/h
temperatuur: 14°C
dauwpunt: 6°C
vochtigheid: 59%
barometer: 1016 hPa
bewolking: licht bewolkt
zicht: meer dan 10 km
bewolking: licht bewolkt 6100 ft
ELLX 250020Z AUTO 01008KT 9999 FEW061/// 14/06 Q1016 NOSIG
EBOS - Oostende
gewijzigd: 25-05-2019 02:20
gedeeltelijk bewolkt  
gedeeltelijk bewolkt  
   wind: varieert 1,9 km/h
wind: varieert 1,9 km/h
temperatuur: 9°C
dauwpunt: 8°C
vochtigheid: 94%
barometer: 1017 hPa
bewolking: gedeeltelijk bewolkt
zicht: 7 km
bewolking: gedeeltelijk bewolkt
EBOS 250020Z VRB01KT 7000 NSC 09/08 Q1017 TEMPO 4000 BR

script ontwikkeld door  Saratoga-weather.org aangepast voor de template door  Weerstation Leuven